createdAt,value
2022-10-26T00:01:09.488Z,11.63
2022-10-26T00:03:37.186Z,13.67
2022-10-26T00:06:09.979Z,12.23
2022-10-26T00:08:37.064Z,13.37
2022-10-26T00:11:04.755Z,12.27
2022-10-26T00:13:31.534Z,14.97
2022-10-26T00:18:29.680Z,13.10
2022-10-26T00:21:03.048Z,11.40
2022-10-26T00:23:29.498Z,11.00
2022-10-26T00:25:57.093Z,12.07
2022-10-26T00:28:24.065Z,10.83
2022-10-26T00:30:51.080Z,9.43
2022-10-26T00:33:17.903Z,12.40
2022-10-26T00:35:47.782Z,10.73
2022-10-26T00:38:14.348Z,13.83
2022-10-26T00:40:41.118Z,10.17
2022-10-26T00:43:21.252Z,13.67
2022-10-26T00:45:51.335Z,10.47
2022-10-26T00:48:30.045Z,12.67
2022-10-26T00:51:00.375Z,10.97
2022-10-26T00:53:28.876Z,9.20
2022-10-26T00:55:56.114Z,12.03
2022-10-26T00:58:23.211Z,10.33
2022-10-26T01:00:51.452Z,11.07
2022-10-26T01:03:19.302Z,11.07
2022-10-26T01:05:47.940Z,10.27
2022-10-26T01:08:16.802Z,11.37
2022-10-26T01:10:43.860Z,9.67
2022-10-26T01:13:12.533Z,10.93
2022-10-26T01:15:56.981Z,9.00
2022-10-26T01:18:29.769Z,8.43
2022-10-26T01:21:19.059Z,10.80
2022-10-26T01:24:10.379Z,10.33
2022-10-26T01:27:04.203Z,9.97
2022-10-26T01:29:49.183Z,10.23
2022-10-26T01:32:25.884Z,9.03
2022-10-26T01:35:15.957Z,9.70
2022-10-26T01:38:04.281Z,7.83
2022-10-26T01:40:54.494Z,8.67
2022-10-26T01:43:22.626Z,8.27
2022-10-26T01:45:52.393Z,12.47
2022-10-26T01:48:21.527Z,7.73
2022-10-26T01:50:53.919Z,9.40
2022-10-26T01:53:20.775Z,9.07
2022-10-26T01:55:52.649Z,10.93
2022-10-26T01:59:08.710Z,10.20
2022-10-26T02:01:53.571Z,10.67
2022-10-26T02:04:41.658Z,11.47
2022-10-26T02:07:34.191Z,9.17
2022-10-26T02:10:28.713Z,10.23
2022-10-26T02:13:09.057Z,11.07
2022-10-26T02:15:49.231Z,9.07
2022-10-26T02:18:24.113Z,12.73
2022-10-26T02:20:55.346Z,9.03
2022-10-26T02:23:24.937Z,12.43
2022-10-26T02:25:56.411Z,12.17
2022-10-26T02:28:28.941Z,13.23
2022-10-26T02:30:58.986Z,8.83
2022-10-26T02:33:29.016Z,10.20
2022-10-26T02:35:58.618Z,9.53
2022-10-26T02:38:27.229Z,9.47
2022-10-26T02:40:56.012Z,9.40
2022-10-26T02:43:24.721Z,8.47
2022-10-26T02:45:57.147Z,10.77
2022-10-26T02:48:24.233Z,10.33
2022-10-26T02:51:00.086Z,10.03
2022-10-26T02:53:46.557Z,9.87
2022-10-26T02:56:20.185Z,8.60
2022-10-26T02:58:52.721Z,8.90
2022-10-26T03:01:19.304Z,9.93
2022-10-26T03:03:46.803Z,9.47
2022-10-26T03:06:20.859Z,7.60
2022-10-26T03:08:47.331Z,8.80
2022-10-26T03:11:13.916Z,9.13
2022-10-26T03:13:40.572Z,11.40
2022-10-26T03:16:07.165Z,11.47
2022-10-26T03:18:33.617Z,11.97
2022-10-26T03:21:00.373Z,10.30
2022-10-26T03:23:26.875Z,9.20
2022-10-26T03:26:02.220Z,10.30
2022-10-26T03:28:30.098Z,10.10
2022-10-26T03:30:56.609Z,7.47
2022-10-26T03:33:25.708Z,8.63
2022-10-26T03:35:55.923Z,8.53
2022-10-26T03:38:22.533Z,11.53
2022-10-26T03:40:49.119Z,8.60
2022-10-26T03:43:15.668Z,8.27
2022-10-26T03:45:42.114Z,10.03
2022-10-26T03:48:08.706Z,7.10
2022-10-26T03:50:35.165Z,7.57
2022-10-26T03:53:01.662Z,8.87
2022-10-26T03:55:28.135Z,11.07
2022-10-26T03:57:54.669Z,8.53
2022-10-26T04:00:21.310Z,9.63
2022-10-26T04:02:55.177Z,7.03
2022-10-26T04:05:22.036Z,6.83
2022-10-26T04:07:58.907Z,7.43
2022-10-26T04:10:27.550Z,7.33
2022-10-26T04:12:54.875Z,11.67
2022-10-26T04:15:22.354Z,8.83
2022-10-26T04:17:49.145Z,7.33
2022-10-26T04:20:15.847Z,7.27
2022-10-26T04:22:42.493Z,10.17
2022-10-26T04:25:10.465Z,10.73
2022-10-26T04:27:36.870Z,7.60
2022-10-26T04:30:03.673Z,9.50
2022-10-26T04:32:30.182Z,12.67
2022-10-26T04:34:56.640Z,8.13
2022-10-26T04:37:23.160Z,8.97
2022-10-26T04:39:50.552Z,9.10
2022-10-26T04:42:17.028Z,10.00
2022-10-26T04:44:43.618Z,8.33
2022-10-26T04:47:10.214Z,7.90
2022-10-26T04:49:36.813Z,8.57
2022-10-26T04:52:07.679Z,7.70
2022-10-26T04:54:34.149Z,11.70
2022-10-26T04:57:00.668Z,8.40
2022-10-26T04:59:27.077Z,7.07
2022-10-26T05:01:53.897Z,8.33
2022-10-26T05:04:20.387Z,6.77
2022-10-26T05:06:46.917Z,8.57
2022-10-26T05:09:13.782Z,8.30
2022-10-26T05:11:40.323Z,8.10
2022-10-26T05:14:07.149Z,8.43
2022-10-26T05:16:33.837Z,9.63
2022-10-26T05:19:00.289Z,8.17
2022-10-26T05:21:26.750Z,8.43
2022-10-26T05:23:55.509Z,7.37
2022-10-26T05:26:23.445Z,8.23
2022-10-26T05:28:51.741Z,7.70
2022-10-26T05:31:18.626Z,7.77
2022-10-26T05:33:48.678Z,9.43
2022-10-26T05:36:15.280Z,7.50
2022-10-26T05:38:41.778Z,7.57
2022-10-26T05:41:08.249Z,7.00
2022-10-26T05:43:34.715Z,7.93
2022-10-26T05:46:03.802Z,8.90
2022-10-26T05:48:30.425Z,10.47
2022-10-26T05:51:01.339Z,7.23
2022-10-26T05:53:28.559Z,6.40
2022-10-26T05:55:56.132Z,7.27
2022-10-26T05:58:23.439Z,9.97
2022-10-26T06:01:22.426Z,8.47
2022-10-26T06:04:27.708Z,7.50
2022-10-26T06:06:55.245Z,7.97
2022-10-26T06:09:21.980Z,6.97
2022-10-26T06:14:20.993Z,11.10
2022-10-26T06:17:19.665Z,7.70
2022-10-26T06:20:09.399Z,7.47
2022-10-26T06:22:43.093Z,7.13
2022-10-26T06:25:22.417Z,8.47
2022-10-26T06:28:24.210Z,8.47
2022-10-26T06:30:51.622Z,8.13
2022-10-26T06:33:29.016Z,7.27
2022-10-26T06:36:03.298Z,9.37
2022-10-26T06:38:33.759Z,12.70
2022-10-26T06:41:03.319Z,8.93
2022-10-26T06:43:33.875Z,11.53
2022-10-26T06:46:08.282Z,8.17
2022-10-26T06:48:47.849Z,9.33
2022-10-26T06:51:17.142Z,8.53
2022-10-26T06:53:53.076Z,9.77
2022-10-26T06:56:20.010Z,6.87
2022-10-26T06:58:49.238Z,8.70
2022-10-26T07:01:16.864Z,12.47
2022-10-26T07:03:43.624Z,10.03
2022-10-26T07:06:10.297Z,7.17
2022-10-26T07:08:37.106Z,10.03
2022-10-26T07:11:04.689Z,6.77
2022-10-26T07:13:31.192Z,8.63
2022-10-26T07:15:57.610Z,9.20
2022-10-26T07:18:24.085Z,14.13
2022-10-26T07:20:50.630Z,17.87
2022-10-26T07:23:17.279Z,16.23
2022-10-26T07:25:43.926Z,18.47
2022-10-26T07:28:11.744Z,23.73
2022-10-26T07:30:40.038Z,28.27
2022-10-26T07:33:11.993Z,20.77
2022-10-26T07:35:39.070Z,22.27
2022-10-26T07:38:06.635Z,18.53
2022-10-26T07:40:33.301Z,15.10
2022-10-26T07:43:00.965Z,16.70
2022-10-26T07:45:29.103Z,18.00
2022-10-26T07:47:56.042Z,27.23
2022-10-26T07:50:23.502Z,31.53
2022-10-26T07:52:50.915Z,24.93
2022-10-26T07:55:19.084Z,23.17
2022-10-26T07:57:47.568Z,20.93
2022-10-26T08:00:17.833Z,23.20
2022-10-26T08:02:44.961Z,22.33
2022-10-26T08:05:11.869Z,24.97
2022-10-26T08:07:43.885Z,16.13
2022-10-26T08:10:12.122Z,14.77
2022-10-26T08:12:39.240Z,13.80
2022-10-26T08:15:06.623Z,10.03
2022-10-26T08:17:33.350Z,12.77
2022-10-26T08:19:59.822Z,11.57
2022-10-26T08:22:28.384Z,13.03
2022-10-26T08:24:54.837Z,10.87
2022-10-26T08:27:21.308Z,11.37
2022-10-26T08:29:47.690Z,13.47
2022-10-26T08:32:14.305Z,11.23
2022-10-26T08:34:40.806Z,11.23
2022-10-26T08:37:07.247Z,13.27
2022-10-26T08:39:33.704Z,10.70
2022-10-26T08:42:26.479Z,12.00
2022-10-26T08:44:59.165Z,10.23
2022-10-26T08:47:31.551Z,13.93
2022-10-26T08:50:13.315Z,13.70
2022-10-26T08:53:05.361Z,10.83
2022-10-26T08:58:17.414Z,15.40
2022-10-26T09:00:47.072Z,12.63
2022-10-26T09:03:15.401Z,12.53
2022-10-26T09:05:55.376Z,15.80
2022-10-26T09:08:41.782Z,14.30
2022-10-26T09:11:14.443Z,14.03
2022-10-26T09:13:59.924Z,11.93
2022-10-26T09:16:58.448Z,12.67
2022-10-26T09:20:00.121Z,14.40
2022-10-26T09:22:41.546Z,9.80
2022-10-26T09:25:29.105Z,10.20
2022-10-26T09:27:58.468Z,9.93
2022-10-26T09:30:25.194Z,7.53
2022-10-26T09:33:24.097Z,13.03
2022-10-26T09:35:56.713Z,10.43
2022-10-26T09:39:25.403Z,12.23
2022-10-26T09:42:13.850Z,7.80
2022-10-26T09:44:55.793Z,7.03
2022-10-26T09:47:39.637Z,10.33
2022-10-26T09:50:13.841Z,10.27
2022-10-26T09:52:40.409Z,7.77
2022-10-26T09:55:10.544Z,7.60
2022-10-26T09:57:39.649Z,6.10
2022-10-26T10:00:06.546Z,9.57
2022-10-26T10:02:49.412Z,7.37
2022-10-26T10:05:49.793Z,9.87
2022-10-26T10:08:20.966Z,13.80
2022-10-26T10:11:07.232Z,9.80
2022-10-26T10:13:36.783Z,6.03
2022-10-26T10:16:23.082Z,8.00
2022-10-26T10:18:55.666Z,6.80
2022-10-26T10:21:44.562Z,5.87
2022-10-26T10:24:27.987Z,6.57
2022-10-26T10:27:02.064Z,8.37
2022-10-26T10:29:34.850Z,8.30
2022-10-26T10:32:05.109Z,11.90
2022-10-26T10:34:32.952Z,6.43
2022-10-26T10:37:02.867Z,6.37
2022-10-26T10:39:42.643Z,7.30
2022-10-26T10:42:27.210Z,5.50
2022-10-26T10:44:55.673Z,4.87
2022-10-26T10:47:36.621Z,7.27
2022-10-26T10:50:19.983Z,6.97
2022-10-26T10:52:47.316Z,4.07
2022-10-26T10:55:14.152Z,6.33
2022-10-26T10:57:58.880Z,4.33
2022-10-26T11:00:27.396Z,6.33
2022-10-26T11:03:14.155Z,6.23
2022-10-26T11:05:43.753Z,6.33
2022-10-26T11:08:18.245Z,4.60
2022-10-26T11:10:57.977Z,10.20
2022-10-26T11:13:29.910Z,5.87
2022-10-26T11:16:07.560Z,8.73
2022-10-26T11:18:41.250Z,9.97
2022-10-26T11:21:28.899Z,7.57
2022-10-26T11:24:12.108Z,7.20
2022-10-26T11:26:49.082Z,5.10
2022-10-26T11:29:47.593Z,6.37
2022-10-26T11:32:22.560Z,4.83
2022-10-26T11:35:13.318Z,5.40
2022-10-26T11:38:03.338Z,7.30
2022-10-26T11:40:45.082Z,5.00
2022-10-26T11:43:21.548Z,4.23
2022-10-26T11:46:02.676Z,4.43
2022-10-26T11:48:37.543Z,4.70
2022-10-26T11:51:05.202Z,6.90
2022-10-26T11:53:38.709Z,5.20
2022-10-26T11:56:14.391Z,3.73
2022-10-26T11:58:41.461Z,4.93
2022-10-26T12:01:12.195Z,5.33
2022-10-26T12:03:45.658Z,4.67
2022-10-26T12:06:15.182Z,3.47
2022-10-26T12:08:55.178Z,5.63
2022-10-26T12:11:45.939Z,3.47
2022-10-26T12:14:24.795Z,4.70
2022-10-26T12:17:12.638Z,3.40
2022-10-26T12:20:02.916Z,5.23
2022-10-26T12:22:34.561Z,3.97
2022-10-26T12:25:19.963Z,3.57
2022-10-26T12:27:49.326Z,5.23
2022-10-26T12:30:18.757Z,7.53
2022-10-26T12:32:45.147Z,4.03
2022-10-26T12:35:17.558Z,3.13
2022-10-26T12:37:44.291Z,6.20
2022-10-26T12:40:32.640Z,4.30
2022-10-26T12:43:14.462Z,3.90
2022-10-26T12:46:12.975Z,5.00
2022-10-26T12:48:46.699Z,5.50
2022-10-26T12:51:40.016Z,2.23
2022-10-26T12:54:41.966Z,3.43
2022-10-26T12:57:29.926Z,3.63
2022-10-26T13:00:03.006Z,5.23
2022-10-26T13:02:52.370Z,5.17
2022-10-26T13:05:33.633Z,3.97
2022-10-26T13:08:09.413Z,3.37
2022-10-26T13:10:40.254Z,2.83
2022-10-26T13:13:08.252Z,4.93
2022-10-26T13:15:40.882Z,2.93
2022-10-26T13:18:10.110Z,3.10
2022-10-26T13:20:52.014Z,3.63
2022-10-26T13:23:31.103Z,3.53
2022-10-26T13:26:17.848Z,3.50
2022-10-26T13:28:48.613Z,6.50
2022-10-26T13:31:23.974Z,3.93
2022-10-26T13:33:57.828Z,3.20
2022-10-26T13:36:38.766Z,6.50
2022-10-26T13:39:20.531Z,5.73
2022-10-26T13:41:51.152Z,3.33
2022-10-26T13:44:26.179Z,4.60
2022-10-26T13:46:58.441Z,3.73
2022-10-26T13:49:30.667Z,4.23
2022-10-26T13:52:02.249Z,4.60
2022-10-26T13:54:36.738Z,5.53
2022-10-26T13:57:34.003Z,3.80
2022-10-26T14:00:07.816Z,5.07
2022-10-26T14:02:42.090Z,3.87
2022-10-26T14:05:12.399Z,5.40
2022-10-26T14:07:55.863Z,6.00
2022-10-26T14:10:34.537Z,7.20
2022-10-26T14:13:06.587Z,4.80
2022-10-26T14:15:34.806Z,5.20
2022-10-26T14:18:02.790Z,5.90
2022-10-26T14:20:31.647Z,5.50
2022-10-26T14:22:58.138Z,4.80
2022-10-26T14:25:41.752Z,5.33
2022-10-26T14:28:26.672Z,4.87
2022-10-26T14:30:53.171Z,5.07
2022-10-26T14:33:25.935Z,5.33
2022-10-26T14:35:52.943Z,6.43
2022-10-26T14:38:26.385Z,4.80
2022-10-26T14:40:56.677Z,5.20
2022-10-26T14:43:25.606Z,4.40
2022-10-26T14:45:54.197Z,4.23
2022-10-26T14:48:32.626Z,3.57
2022-10-26T14:51:02.738Z,5.93
2022-10-26T14:53:53.525Z,4.27
2022-10-26T14:56:25.045Z,4.13
2022-10-26T14:58:52.990Z,5.10
2022-10-26T15:01:22.372Z,4.43
2022-10-26T15:04:04.539Z,6.63
2022-10-26T15:06:32.642Z,8.47
2022-10-26T15:09:00.678Z,3.80
2022-10-26T15:11:29.683Z,5.07
2022-10-26T15:13:57.874Z,5.73
2022-10-26T15:16:27.954Z,7.87
2022-10-26T15:18:58.797Z,5.53
2022-10-26T15:21:31.972Z,7.13
2022-10-26T15:23:59.320Z,6.17
2022-10-26T15:26:26.051Z,5.93
2022-10-26T15:28:53.751Z,5.40
2022-10-26T15:31:20.216Z,4.73
2022-10-26T15:33:52.907Z,7.90
2022-10-26T15:36:25.652Z,5.07
2022-10-26T15:38:52.157Z,5.30
2022-10-26T15:41:30.638Z,4.40
2022-10-26T15:44:01.858Z,2.93
2022-10-26T15:46:31.066Z,5.23
2022-10-26T15:49:00.009Z,5.30
2022-10-26T15:51:29.308Z,3.07
2022-10-26T15:54:00.247Z,3.10
2022-10-26T15:56:26.774Z,3.60
2022-10-26T15:58:56.687Z,4.70
2022-10-26T16:01:28.451Z,3.43
2022-10-26T16:03:55.353Z,4.20
2022-10-26T16:06:30.724Z,4.10
2022-10-26T16:09:00.303Z,5.40
2022-10-26T16:11:29.246Z,6.57
2022-10-26T16:13:58.244Z,4.23
2022-10-26T16:16:28.050Z,4.10
2022-10-26T16:19:11.811Z,4.37
2022-10-26T16:21:42.656Z,4.67
2022-10-26T16:24:09.823Z,4.23
2022-10-26T16:26:36.291Z,4.90
2022-10-26T16:29:03.369Z,3.47
2022-10-26T16:31:29.797Z,4.43
2022-10-26T16:34:00.187Z,4.20
2022-10-26T16:36:29.753Z,4.40
2022-10-26T16:38:56.428Z,4.63
2022-10-26T16:41:22.916Z,5.03
2022-10-26T16:43:49.464Z,5.67
2022-10-26T16:46:18.483Z,8.27
2022-10-26T16:48:46.690Z,3.37
2022-10-26T16:51:20.265Z,5.63
2022-10-26T16:53:48.237Z,4.73
2022-10-26T16:56:17.688Z,5.57
2022-10-26T16:58:44.713Z,4.73
2022-10-26T17:01:13.314Z,7.30
2022-10-26T17:03:40.032Z,5.77
2022-10-26T17:06:07.794Z,8.13
2022-10-26T17:08:35.992Z,5.70
2022-10-26T17:11:08.733Z,4.57
2022-10-26T17:13:36.485Z,6.03
2022-10-26T17:16:08.626Z,3.80
2022-10-26T17:18:35.179Z,4.00
2022-10-26T17:21:02.823Z,4.43
2022-10-26T17:23:29.369Z,6.30
2022-10-26T17:26:01.206Z,6.13
2022-10-26T17:28:27.854Z,7.53
2022-10-26T17:31:15.029Z,6.20
2022-10-26T17:33:43.801Z,5.97
2022-10-26T17:36:12.525Z,7.47
2022-10-26T17:38:43.461Z,9.23
2022-10-26T17:41:12.589Z,7.43
2022-10-26T17:43:41.139Z,6.53
2022-10-26T17:46:11.068Z,7.63
2022-10-26T17:48:38.366Z,6.63
2022-10-26T17:51:07.861Z,9.43
2022-10-26T17:53:34.253Z,7.50
2022-10-26T17:56:06.244Z,8.17
2022-10-26T17:58:33.891Z,11.60
2022-10-26T18:01:02.526Z,10.77
2022-10-26T18:03:29.145Z,9.80
2022-10-26T18:05:55.799Z,11.10
2022-10-26T18:08:22.460Z,9.93
2022-10-26T18:10:50.930Z,10.83
2022-10-26T18:13:19.022Z,8.57
2022-10-26T18:15:45.826Z,11.77
2022-10-26T18:18:12.556Z,8.97
2022-10-26T18:20:39.684Z,11.60
2022-10-26T18:23:06.404Z,10.03
2022-10-26T18:25:33.815Z,9.73
2022-10-26T18:28:00.425Z,8.00
2022-10-26T18:30:28.190Z,9.03
2022-10-26T18:32:54.714Z,7.07
2022-10-26T18:35:21.489Z,8.30
2022-10-26T18:37:48.264Z,5.80
2022-10-26T18:40:15.274Z,7.13
2022-10-26T18:42:42.423Z,7.53
2022-10-26T18:45:09.243Z,7.07
2022-10-26T18:47:35.699Z,8.83
2022-10-26T18:50:02.157Z,8.90
2022-10-26T18:52:28.663Z,11.30
2022-10-26T18:54:55.447Z,7.00
2022-10-26T18:57:26.914Z,10.90
2022-10-26T18:59:55.145Z,8.43
2022-10-26T19:02:22.834Z,10.07
2022-10-26T19:04:51.686Z,8.77
2022-10-26T19:07:18.210Z,10.63
2022-10-26T19:09:44.830Z,9.57
2022-10-26T19:12:11.487Z,11.17
2022-10-26T19:14:38.078Z,9.50
2022-10-26T19:17:06.016Z,8.00
2022-10-26T19:19:33.043Z,8.60
2022-10-26T19:22:00.950Z,7.50
2022-10-26T19:24:27.531Z,9.07
2022-10-26T19:26:54.316Z,16.17
2022-10-26T19:29:21.118Z,12.73
2022-10-26T19:31:51.991Z,12.90
2022-10-26T19:34:18.506Z,11.50
2022-10-26T19:36:46.730Z,15.60
2022-10-26T19:39:14.873Z,24.53
2022-10-26T19:41:41.678Z,21.93
2022-10-26T19:44:11.103Z,16.57
2022-10-26T19:46:39.398Z,11.23
2022-10-26T19:49:06.853Z,10.40
2022-10-26T19:51:34.040Z,10.57
2022-10-26T19:54:04.231Z,9.10
2022-10-26T19:56:32.079Z,7.40
2022-10-26T19:58:58.598Z,10.33
2022-10-26T20:01:25.250Z,8.60
2022-10-26T20:03:52.764Z,8.20
2022-10-26T20:06:19.882Z,9.07
2022-10-26T20:08:49.105Z,9.77
2022-10-26T20:11:19.498Z,9.57
2022-10-26T20:13:47.573Z,8.03
2022-10-26T20:16:16.579Z,7.53
2022-10-26T20:18:47.612Z,9.73
2022-10-26T20:21:16.631Z,8.10
2022-10-26T20:23:44.201Z,7.53
2022-10-26T20:26:18.118Z,9.07
2022-10-26T20:28:49.162Z,10.40
2022-10-26T20:31:15.786Z,9.70
2022-10-26T20:33:42.710Z,10.47
2022-10-26T20:36:09.418Z,8.00
2022-10-26T20:38:36.316Z,8.57
2022-10-26T20:41:06.299Z,9.40
2022-10-26T20:43:38.965Z,8.53
2022-10-26T20:46:06.493Z,9.90
2022-10-26T20:48:33.203Z,9.40
2022-10-26T20:51:19.646Z,15.73
2022-10-26T20:54:11.827Z,11.67
2022-10-26T20:56:43.800Z,10.80
2022-10-26T20:59:24.960Z,20.60
2022-10-26T21:01:52.046Z,23.60
2022-10-26T21:04:18.629Z,22.37
2022-10-26T21:06:45.498Z,20.53
2022-10-26T21:09:11.951Z,20.87
2022-10-26T21:11:38.430Z,22.37
2022-10-26T21:14:06.257Z,15.30
2022-10-26T21:16:33.120Z,16.53
2022-10-26T21:19:00.249Z,17.37
2022-10-26T21:21:27.300Z,16.50
2022-10-26T21:23:54.881Z,15.20
2022-10-26T21:26:21.442Z,13.20
2022-10-26T21:28:48.594Z,13.47
2022-10-26T21:31:18.242Z,9.93
2022-10-26T21:33:46.004Z,11.80
2022-10-26T21:36:14.038Z,15.17
2022-10-26T21:38:42.634Z,16.17
2022-10-26T21:41:09.153Z,12.40
2022-10-26T21:43:37.510Z,10.37
2022-10-26T21:46:04.406Z,10.27
2022-10-26T21:48:32.454Z,9.73
2022-10-26T21:51:03.516Z,9.03
2022-10-26T21:53:30.118Z,10.00
2022-10-26T21:56:04.883Z,9.80
2022-10-26T21:58:31.879Z,15.97
2022-10-26T22:01:09.859Z,19.47
2022-10-26T22:03:37.382Z,20.17
2022-10-26T22:06:06.000Z,16.83
2022-10-26T22:08:33.090Z,16.23
2022-10-26T22:11:10.570Z,14.30
2022-10-26T22:13:39.879Z,13.57
2022-10-26T22:16:15.322Z,14.77
2022-10-26T22:18:44.207Z,12.03
2022-10-26T22:21:12.583Z,10.87
2022-10-26T22:23:40.543Z,11.73
2022-10-26T22:26:10.716Z,14.83
2022-10-26T22:28:41.681Z,11.40
2022-10-26T22:31:13.105Z,10.10
2022-10-26T22:33:40.556Z,11.23
2022-10-26T22:36:17.240Z,10.87
2022-10-26T22:38:44.123Z,9.27
2022-10-26T22:41:11.400Z,8.17
2022-10-26T22:43:38.337Z,8.23
2022-10-26T22:46:06.710Z,8.43
2022-10-26T22:48:34.311Z,13.97
2022-10-26T22:51:12.670Z,12.67
2022-10-26T22:53:39.359Z,12.30
2022-10-26T22:56:07.970Z,11.57
2022-10-26T22:58:35.217Z,9.87
2022-10-26T23:01:07.135Z,8.27
2022-10-26T23:03:34.797Z,13.07
2022-10-26T23:06:02.160Z,8.43
2022-10-26T23:08:28.740Z,7.47
2022-10-26T23:11:07.631Z,8.17
2022-10-26T23:13:34.405Z,10.10
2022-10-26T23:16:14.443Z,9.07
2022-10-26T23:18:41.655Z,7.50
2022-10-26T23:21:10.603Z,8.50
2022-10-26T23:23:37.628Z,7.67
2022-10-26T23:26:09.358Z,7.33
2022-10-26T23:28:36.400Z,7.90
2022-10-26T23:31:03.608Z,8.30
2022-10-26T23:33:30.557Z,8.03
2022-10-26T23:35:57.583Z,7.57
2022-10-26T23:38:25.137Z,8.57
2022-10-26T23:40:53.429Z,8.37
2022-10-26T23:43:20.439Z,6.53
2022-10-26T23:45:47.666Z,5.80
2022-10-26T23:48:15.280Z,7.57
2022-10-26T23:50:43.293Z,6.73
2022-10-26T23:53:10.988Z,8.73
2022-10-26T23:55:37.462Z,7.37
2022-10-26T23:58:04.320Z,8.13
